sensor_id;sensor_type;location;lat;lon;timestamp;P1;durP1;ratioP1;P2;durP2;ratioP2
25015;SDS011;13029;46.286;7.488;2023-02-11T00:00:46;4.95;;;3.28;;
25015;SDS011;13029;46.286;7.488;2023-02-11T00:03:11;5.63;;;3.25;;
25015;SDS011;13029;46.286;7.488;2023-02-11T00:05:36;4.80;;;3.17;;
25015;SDS011;13029;46.286;7.488;2023-02-11T00:08:02;7.25;;;3.75;;
25015;SDS011;13029;46.286;7.488;2023-02-11T00:10:27;6.28;;;3.75;;
25015;SDS011;13029;46.286;7.488;2023-02-11T00:12:52;7.68;;;3.65;;
25015;SDS011;13029;46.286;7.488;2023-02-11T00:15:18;5.47;;;3.25;;
25015;SDS011;13029;46.286;7.488;2023-02-11T00:17:45;6.63;;;3.35;;
25015;SDS011;13029;46.286;7.488;2023-02-11T00:20:10;6.90;;;2.72;;
25015;SDS011;13029;46.286;7.488;2023-02-11T00:22:35;5.25;;;2.80;;
25015;SDS011;13029;46.286;7.488;2023-02-11T00:25:00;4.43;;;2.67;;
25015;SDS011;13029;46.286;7.488;2023-02-11T00:27:26;4.82;;;2.45;;
25015;SDS011;13029;46.286;7.488;2023-02-11T00:29:51;5.28;;;2.50;;
25015;SDS011;13029;46.286;7.488;2023-02-11T00:32:17;5.22;;;2.42;;
25015;SDS011;13029;46.286;7.488;2023-02-11T00:34:42;6.22;;;3.00;;
25015;SDS011;13029;46.286;7.488;2023-02-11T00:37:07;7.05;;;2.60;;
25015;SDS011;13029;46.286;7.488;2023-02-11T00:39:33;4.05;;;2.90;;
25015;SDS011;13029;46.286;7.488;2023-02-11T00:41:58;5.38;;;2.72;;
25015;SDS011;13029;46.286;7.488;2023-02-11T00:44:23;5.00;;;2.42;;
25015;SDS011;13029;46.286;7.488;2023-02-11T00:46:49;2.90;;;2.30;;
25015;SDS011;13029;46.286;7.488;2023-02-11T00:49:14;3.97;;;2.65;;
25015;SDS011;13029;46.286;7.488;2023-02-11T00:51:40;5.97;;;2.90;;
25015;SDS011;13029;46.286;7.488;2023-02-11T00:54:05;4.80;;;3.08;;
25015;SDS011;13029;46.286;7.488;2023-02-11T00:56:30;5.35;;;2.67;;
25015;SDS011;13029;46.286;7.488;2023-02-11T00:58:56;4.03;;;2.72;;
25015;SDS011;13029;46.286;7.488;2023-02-11T01:01:22;4.13;;;2.78;;
25015;SDS011;13029;46.286;7.488;2023-02-11T01:03:47;3.35;;;2.55;;
25015;SDS011;13029;46.286;7.488;2023-02-11T01:06:12;4.10;;;2.50;;
25015;SDS011;13029;46.286;7.488;2023-02-11T01:08:38;4.70;;;2.20;;
25015;SDS011;13029;46.286;7.488;2023-02-11T01:11:05;6.55;;;2.85;;
25015;SDS011;13029;46.286;7.488;2023-02-11T01:13:32;2.83;;;2.17;;
25015;SDS011;13029;46.286;7.488;2023-02-11T01:15:58;3.65;;;2.67;;
25015;SDS011;13029;46.286;7.488;2023-02-11T01:18:24;5.90;;;2.55;;
25015;SDS011;13029;46.286;7.488;2023-02-11T01:20:50;8.40;;;3.05;;
25015;SDS011;13029;46.286;7.488;2023-02-11T01:23:16;5.90;;;2.83;;
25015;SDS011;13029;46.286;7.488;2023-02-11T01:25:41;4.28;;;2.50;;
25015;SDS011;13029;46.286;7.488;2023-02-11T01:28:09;6.13;;;3.05;;
25015;SDS011;13029;46.286;7.488;2023-02-11T01:30:40;6.15;;;2.95;;
25015;SDS011;13029;46.286;7.488;2023-02-11T01:33:05;4.47;;;2.72;;
25015;SDS011;13029;46.286;7.488;2023-02-11T01:35:30;6.55;;;3.03;;
25015;SDS011;13029;46.286;7.488;2023-02-11T01:37:56;5.57;;;3.05;;
25015;SDS011;13029;46.286;7.488;2023-02-11T01:40:21;4.13;;;2.60;;
25015;SDS011;13029;46.286;7.488;2023-02-11T01:42:46;3.22;;;2.42;;
25015;SDS011;13029;46.286;7.488;2023-02-11T01:48:19;3.95;;;2.47;;
25015;SDS011;13029;46.286;7.488;2023-02-11T01:50:47;6.50;;;2.30;;
25015;SDS011;13029;46.286;7.488;2023-02-11T01:53:14;5.47;;;2.30;;
25015;SDS011;13029;46.286;7.488;2023-02-11T01:55:58;4.13;;;2.33;;
25015;SDS011;13029;46.286;7.488;2023-02-11T01:58:42;2.92;;;2.22;;
25015;SDS011;13029;46.286;7.488;2023-02-11T02:01:09;6.82;;;2.33;;
25015;SDS011;13029;46.286;7.488;2023-02-11T02:03:35;3.28;;;2.35;;
25015;SDS011;13029;46.286;7.488;2023-02-11T02:08:39;3.58;;;2.55;;
25015;SDS011;13029;46.286;7.488;2023-02-11T02:11:08;4.80;;;2.38;;
25015;SDS011;13029;46.286;7.488;2023-02-11T02:13:34;3.78;;;2.90;;
25015;SDS011;13029;46.286;7.488;2023-02-11T02:16:01;3.13;;;2.33;;
25015;SDS011;13029;46.286;7.488;2023-02-11T02:21:03;3.50;;;2.55;;
25015;SDS011;13029;46.286;7.488;2023-02-11T02:26:52;2.88;;;2.08;;
25015;SDS011;13029;46.286;7.488;2023-02-11T02:29:45;3.17;;;2.10;;
25015;SDS011;13029;46.286;7.488;2023-02-11T02:32:29;2.50;;;1.77;;
25015;SDS011;13029;46.286;7.488;2023-02-11T02:34:58;4.43;;;2.22;;
25015;SDS011;13029;46.286;7.488;2023-02-11T02:37:35;3.45;;;2.10;;
25015;SDS011;13029;46.286;7.488;2023-02-11T02:40:13;2.58;;;2.00;;
25015;SDS011;13029;46.286;7.488;2023-02-11T02:42:41;2.25;;;2.00;;
25015;SDS011;13029;46.286;7.488;2023-02-11T02:45:07;2.80;;;2.08;;
25015;SDS011;13029;46.286;7.488;2023-02-11T02:47:34;3.05;;;2.08;;
25015;SDS011;13029;46.286;7.488;2023-02-11T02:50:00;2.47;;;1.90;;
25015;SDS011;13029;46.286;7.488;2023-02-11T03:03:16;2.70;;;2.10;;
25015;SDS011;13029;46.286;7.488;2023-02-11T03:08:24;2.13;;;1.88;;
25015;SDS011;13029;46.286;7.488;2023-02-11T03:10:54;3.00;;;1.80;;
25015;SDS011;13029;46.286;7.488;2023-02-11T03:13:21;2.63;;;1.80;;
25015;SDS011;13029;46.286;7.488;2023-02-11T03:15:51;4.82;;;2.03;;
25015;SDS011;13029;46.286;7.488;2023-02-11T03:18:19;2.25;;;1.90;;
25015;SDS011;13029;46.286;7.488;2023-02-11T03:20:47;2.50;;;2.05;;
25015;SDS011;13029;46.286;7.488;2023-02-11T03:23:15;2.47;;;1.83;;
25015;SDS011;13029;46.286;7.488;2023-02-11T03:25:51;2.15;;;1.73;;
25015;SDS011;13029;46.286;7.488;2023-02-11T03:36:25;2.45;;;1.67;;
25015;SDS011;13029;46.286;7.488;2023-02-11T03:39:09;2.20;;;1.88;;
25015;SDS011;13029;46.286;7.488;2023-02-11T03:41:36;2.25;;;1.73;;
25015;SDS011;13029;46.286;7.488;2023-02-11T03:44:02;2.55;;;1.90;;
25015;SDS011;13029;46.286;7.488;2023-02-11T03:46:32;2.00;;;1.70;;
25015;SDS011;13029;46.286;7.488;2023-02-11T03:49:04;2.30;;;1.70;;
25015;SDS011;13029;46.286;7.488;2023-02-11T03:51:32;3.03;;;1.55;;
25015;SDS011;13029;46.286;7.488;2023-02-11T03:53:59;6.40;;;1.90;;
25015;SDS011;13029;46.286;7.488;2023-02-11T03:56:27;3.70;;;1.80;;
25015;SDS011;13029;46.286;7.488;2023-02-11T03:58:55;1.85;;;1.50;;
25015;SDS011;13029;46.286;7.488;2023-02-11T04:01:20;2.40;;;1.73;;
25015;SDS011;13029;46.286;7.488;2023-02-11T04:03:46;2.47;;;1.80;;
25015;SDS011;13029;46.286;7.488;2023-02-11T04:06:11;4.22;;;1.40;;
25015;SDS011;13029;46.286;7.488;2023-02-11T04:08:36;1.77;;;1.58;;
25015;SDS011;13029;46.286;7.488;2023-02-11T04:11:02;3.65;;;1.83;;
25015;SDS011;13029;46.286;7.488;2023-02-11T04:13:28;1.92;;;1.75;;
25015;SDS011;13029;46.286;7.488;2023-02-11T04:15:53;2.10;;;1.60;;
25015;SDS011;13029;46.286;7.488;2023-02-11T04:18:19;2.38;;;1.60;;
25015;SDS011;13029;46.286;7.488;2023-02-11T04:20:44;5.78;;;2.10;;
25015;SDS011;13029;46.286;7.488;2023-02-11T04:23:09;3.20;;;1.65;;
25015;SDS011;13029;46.286;7.488;2023-02-11T04:25:35;7.03;;;1.60;;
25015;SDS011;13029;46.286;7.488;2023-02-11T04:28:00;2.65;;;1.67;;
25015;SDS011;13029;46.286;7.488;2023-02-11T04:30:26;2.03;;;1.48;;
25015;SDS011;13029;46.286;7.488;2023-02-11T04:32:51;3.53;;;1.73;;
25015;SDS011;13029;46.286;7.488;2023-02-11T04:35:18;2.17;;;1.73;;
25015;SDS011;13029;46.286;7.488;2023-02-11T04:37:43;2.78;;;1.80;;
25015;SDS011;13029;46.286;7.488;2023-02-11T04:40:08;1.73;;;1.63;;
25015;SDS011;13029;46.286;7.488;2023-02-11T04:42:34;1.73;;;1.48;;
25015;SDS011;13029;46.286;7.488;2023-02-11T04:44:59;2.42;;;1.70;;
25015;SDS011;13029;46.286;7.488;2023-02-11T04:47:25;2.15;;;1.52;;
25015;SDS011;13029;46.286;7.488;2023-02-11T04:49:51;1.48;;;1.38;;
25015;SDS011;13029;46.286;7.488;2023-02-11T04:52:16;2.15;;;1.60;;
25015;SDS011;13029;46.286;7.488;2023-02-11T04:54:41;3.33;;;1.67;;
25015;SDS011;13029;46.286;7.488;2023-02-11T04:57:07;3.08;;;1.70;;
25015;SDS011;13029;46.286;7.488;2023-02-11T04:59:32;2.65;;;1.70;;
25015;SDS011;13029;46.286;7.488;2023-02-11T05:01:57;4.85;;;2.00;;
25015;SDS011;13029;46.286;7.488;2023-02-11T05:04:22;1.58;;;1.48;;
25015;SDS011;13029;46.286;7.488;2023-02-11T05:06:48;2.80;;;1.13;;
25015;SDS011;13029;46.286;7.488;2023-02-11T05:09:13;3.58;;;1.83;;
25015;SDS011;13029;46.286;7.488;2023-02-11T05:11:39;1.95;;;1.50;;
25015;SDS011;13029;46.286;7.488;2023-02-11T05:14:05;1.50;;;1.35;;
25015;SDS011;13029;46.286;7.488;2023-02-11T05:16:30;2.13;;;1.65;;
25015;SDS011;13029;46.286;7.488;2023-02-11T05:18:56;3.65;;;1.40;;
25015;SDS011;13029;46.286;7.488;2023-02-11T05:21:21;2.25;;;1.58;;
25015;SDS011;13029;46.286;7.488;2023-02-11T05:23:46;1.50;;;1.40;;
25015;SDS011;13029;46.286;7.488;2023-02-11T05:26:12;2.13;;;1.75;;
25015;SDS011;13029;46.286;7.488;2023-02-11T05:28:38;1.98;;;1.30;;
25015;SDS011;13029;46.286;7.488;2023-02-11T05:31:04;2.13;;;1.23;;
25015;SDS011;13029;46.286;7.488;2023-02-11T05:33:30;1.98;;;1.20;;
25015;SDS011;13029;46.286;7.488;2023-02-11T05:36:03;1.80;;;1.13;;
25015;SDS011;13029;46.286;7.488;2023-02-11T05:38:30;2.00;;;1.67;;
25015;SDS011;13029;46.286;7.488;2023-02-11T05:40:55;1.30;;;1.15;;
25015;SDS011;13029;46.286;7.488;2023-02-11T05:43:21;1.63;;;1.30;;
25015;SDS011;13029;46.286;7.488;2023-02-11T05:45:46;5.22;;;1.30;;
25015;SDS011;13029;46.286;7.488;2023-02-11T05:48:12;1.33;;;1.10;;
25015;SDS011;13029;46.286;7.488;2023-02-11T05:50:37;1.65;;;1.55;;
25015;SDS011;13029;46.286;7.488;2023-02-11T05:53:02;1.30;;;1.20;;
25015;SDS011;13029;46.286;7.488;2023-02-11T05:55:28;1.63;;;1.40;;
25015;SDS011;13029;46.286;7.488;2023-02-11T05:57:53;2.08;;;1.35;;
25015;SDS011;13029;46.286;7.488;2023-02-11T06:00:18;2.90;;;1.30;;
25015;SDS011;13029;46.286;7.488;2023-02-11T06:02:44;2.03;;;1.55;;
25015;SDS011;13029;46.286;7.488;2023-02-11T06:05:09;6.88;;;1.33;;
25015;SDS011;13029;46.286;7.488;2023-02-11T06:07:34;5.13;;;1.20;;
25015;SDS011;13029;46.286;7.488;2023-02-11T06:10:00;1.38;;;1.27;;
25015;SDS011;13029;46.286;7.488;2023-02-11T06:12:25;1.30;;;1.20;;
25015;SDS011;13029;46.286;7.488;2023-02-11T06:14:51;1.67;;;1.38;;
25015;SDS011;13029;46.286;7.488;2023-02-11T06:17:16;3.85;;;1.52;;
25015;SDS011;13029;46.286;7.488;2023-02-11T06:19:41;1.73;;;1.33;;
25015;SDS011;13029;46.286;7.488;2023-02-11T06:22:07;1.30;;;1.20;;
25015;SDS011;13029;46.286;7.488;2023-02-11T06:24:32;1.35;;;1.25;;
25015;SDS011;13029;46.286;7.488;2023-02-11T06:26:57;3.42;;;1.52;;
25015;SDS011;13029;46.286;7.488;2023-02-11T06:29:23;1.52;;;1.17;;
25015;SDS011;13029;46.286;7.488;2023-02-11T06:31:48;3.42;;;1.50;;
25015;SDS011;13029;46.286;7.488;2023-02-11T06:34:13;1.38;;;1.20;;
25015;SDS011;13029;46.286;7.488;2023-02-11T06:36:39;1.65;;;1.30;;
25015;SDS011;13029;46.286;7.488;2023-02-11T06:39:05;2.03;;;1.30;;
25015;SDS011;13029;46.286;7.488;2023-02-11T06:41:30;1.98;;;1.30;;
25015;SDS011;13029;46.286;7.488;2023-02-11T06:43:56;7.53;;;1.10;;
25015;SDS011;13029;46.286;7.488;2023-02-11T06:46:21;4.55;;;1.50;;
25015;SDS011;13029;46.286;7.488;2023-02-11T06:48:47;1.73;;;1.30;;
25015;SDS011;13029;46.286;7.488;2023-02-11T06:51:12;1.73;;;1.30;;
25015;SDS011;13029;46.286;7.488;2023-02-11T06:53:39;2.92;;;1.40;;
25015;SDS011;13029;46.286;7.488;2023-02-11T06:56:07;1.75;;;1.65;;
25015;SDS011;13029;46.286;7.488;2023-02-11T06:58:33;1.40;;;1.30;;
25015;SDS011;13029;46.286;7.488;2023-02-11T07:00:59;1.60;;;1.20;;
25015;SDS011;13029;46.286;7.488;2023-02-11T07:03:28;1.97;;;1.80;;
25015;SDS011;13029;46.286;7.488;2023-02-11T07:05:53;1.55;;;1.23;;
25015;SDS011;13029;46.286;7.488;2023-02-11T07:08:19;2.05;;;1.35;;
25015;SDS011;13029;46.286;7.488;2023-02-11T07:10:44;7.88;;;1.70;;
25015;SDS011;13029;46.286;7.488;2023-02-11T07:13:09;3.58;;;1.60;;
25015;SDS011;13029;46.286;7.488;2023-02-11T07:15:35;3.55;;;1.27;;
25015;SDS011;13029;46.286;7.488;2023-02-11T07:18:01;1.63;;;1.40;;
25015;SDS011;13029;46.286;7.488;2023-02-11T07:20:26;1.45;;;1.25;;
25015;SDS011;13029;46.286;7.488;2023-02-11T07:22:52;2.38;;;1.40;;
25015;SDS011;13029;46.286;7.488;2023-02-11T07:25:17;2.60;;;1.17;;
25015;SDS011;13029;46.286;7.488;2023-02-11T07:27:42;1.30;;;1.20;;
25015;SDS011;13029;46.286;7.488;2023-02-11T07:30:08;3.10;;;1.63;;
25015;SDS011;13029;46.286;7.488;2023-02-11T07:32:34;1.75;;;1.17;;
25015;SDS011;13029;46.286;7.488;2023-02-11T07:34:59;4.07;;;1.52;;
25015;SDS011;13029;46.286;7.488;2023-02-11T07:37:24;1.30;;;1.20;;
25015;SDS011;13029;46.286;7.488;2023-02-11T07:39:50;5.22;;;1.45;;
25015;SDS011;13029;46.286;7.488;2023-02-11T07:42:15;2.00;;;1.20;;
25015;SDS011;13029;46.286;7.488;2023-02-11T07:44:40;3.83;;;1.30;;
25015;SDS011;13029;46.286;7.488;2023-02-11T07:47:05;2.22;;;1.30;;
25015;SDS011;13029;46.286;7.488;2023-02-11T07:49:31;2.25;;;1.30;;
25015;SDS011;13029;46.286;7.488;2023-02-11T07:51:56;8.95;;;1.90;;
25015;SDS011;13029;46.286;7.488;2023-02-11T07:54:21;5.53;;;1.50;;
25015;SDS011;13029;46.286;7.488;2023-02-11T07:56:47;3.40;;;1.98;;
25015;SDS011;13029;46.286;7.488;2023-02-11T07:59:12;2.50;;;1.52;;
25015;SDS011;13029;46.286;7.488;2023-02-11T08:01:37;3.03;;;1.77;;
25015;SDS011;13029;46.286;7.488;2023-02-11T08:04:03;1.77;;;1.23;;
25015;SDS011;13029;46.286;7.488;2023-02-11T08:06:29;2.40;;;1.52;;
25015;SDS011;13029;46.286;7.488;2023-02-11T08:08:56;1.73;;;1.23;;
25015;SDS011;13029;46.286;7.488;2023-02-11T08:11:25;5.68;;;1.42;;
25015;SDS011;13029;46.286;7.488;2023-02-11T08:13:52;3.58;;;1.70;;
25015;SDS011;13029;46.286;7.488;2023-02-11T08:16:22;2.15;;;1.38;;
25015;SDS011;13029;46.286;7.488;2023-02-11T08:18:49;2.05;;;1.38;;
25015;SDS011;13029;46.286;7.488;2023-02-11T08:21:15;1.45;;;1.35;;
25015;SDS011;13029;46.286;7.488;2023-02-11T08:23:41;2.28;;;1.58;;
25015;SDS011;13029;46.286;7.488;2023-02-11T08:26:08;1.30;;;1.20;;
25015;SDS011;13029;46.286;7.488;2023-02-11T08:28:36;1.33;;;1.20;;
25015;SDS011;13029;46.286;7.488;2023-02-11T08:31:06;1.40;;;1.30;;
25015;SDS011;13029;46.286;7.488;2023-02-11T08:33:50;2.13;;;1.30;;
25015;SDS011;13029;46.286;7.488;2023-02-11T08:36:18;3.78;;;1.67;;
25015;SDS011;13029;46.286;7.488;2023-02-11T08:38:47;3.30;;;1.60;;
25015;SDS011;13029;46.286;7.488;2023-02-11T08:41:13;1.90;;;1.30;;
25015;SDS011;13029;46.286;7.488;2023-02-11T08:43:39;3.22;;;1.38;;
25015;SDS011;13029;46.286;7.488;2023-02-11T08:46:06;1.70;;;1.40;;
25015;SDS011;13029;46.286;7.488;2023-02-11T08:48:32;1.67;;;1.30;;
25015;SDS011;13029;46.286;7.488;2023-02-11T08:50:57;1.73;;;1.40;;
25015;SDS011;13029;46.286;7.488;2023-02-11T08:53:23;1.98;;;1.55;;
25015;SDS011;13029;46.286;7.488;2023-02-11T08:55:52;2.67;;;1.58;;
25015;SDS011;13029;46.286;7.488;2023-02-11T08:58:19;3.03;;;1.80;;
25015;SDS011;13029;46.286;7.488;2023-02-11T09:00:45;2.88;;;1.95;;
25015;SDS011;13029;46.286;7.488;2023-02-11T09:03:11;2.30;;;1.70;;
25015;SDS011;13029;46.286;7.488;2023-02-11T09:05:42;3.47;;;1.85;;
25015;SDS011;13029;46.286;7.488;2023-02-11T09:08:11;3.10;;;1.90;;
25015;SDS011;13029;46.286;7.488;2023-02-11T09:10:37;5.00;;;2.08;;
25015;SDS011;13029;46.286;7.488;2023-02-11T09:13:02;3.08;;;2.05;;
25015;SDS011;13029;46.286;7.488;2023-02-11T09:15:28;4.60;;;1.90;;
25015;SDS011;13029;46.286;7.488;2023-02-11T09:17:53;2.55;;;2.28;;
25015;SDS011;13029;46.286;7.488;2023-02-11T09:20:19;3.58;;;2.08;;
25015;SDS011;13029;46.286;7.488;2023-02-11T09:22:45;2.33;;;1.85;;
25015;SDS011;13029;46.286;7.488;2023-02-11T09:25:10;2.88;;;1.98;;
25015;SDS011;13029;46.286;7.488;2023-02-11T09:27:36;2.47;;;1.60;;
25015;SDS011;13029;46.286;7.488;2023-02-11T09:30:01;2.65;;;1.90;;
25015;SDS011;13029;46.286;7.488;2023-02-11T09:32:27;3.47;;;2.03;;
25015;SDS011;13029;46.286;7.488;2023-02-11T09:34:52;2.63;;;1.98;;
25015;SDS011;13029;46.286;7.488;2023-02-11T09:37:18;3.58;;;2.03;;
25015;SDS011;13029;46.286;7.488;2023-02-11T09:39:43;2.10;;;1.70;;
25015;SDS011;13029;46.286;7.488;2023-02-11T09:45:02;2.88;;;2.00;;
25015;SDS011;13029;46.286;7.488;2023-02-11T09:47:31;4.55;;;1.83;;
25015;SDS011;13029;46.286;7.488;2023-02-11T09:50:03;3.53;;;2.00;;
25015;SDS011;13029;46.286;7.488;2023-02-11T09:55:19;4.53;;;1.95;;
25015;SDS011;13029;46.286;7.488;2023-02-11T09:57:46;5.72;;;2.50;;
25015;SDS011;13029;46.286;7.488;2023-02-11T10:00:16;5.20;;;2.60;;
25015;SDS011;13029;46.286;7.488;2023-02-11T10:08:12;4.97;;;1.88;;
25015;SDS011;13029;46.286;7.488;2023-02-11T10:10:49;7.90;;;2.20;;
25015;SDS011;13029;46.286;7.488;2023-02-11T10:13:21;7.18;;;2.58;;
25015;SDS011;13029;46.286;7.488;2023-02-11T10:16:18;8.15;;;2.30;;
25015;SDS011;13029;46.286;7.488;2023-02-11T10:24:24;3.78;;;2.38;;
25015;SDS011;13029;46.286;7.488;2023-02-11T10:26:52;4.75;;;2.35;;
25015;SDS011;13029;46.286;7.488;2023-02-11T10:29:25;5.40;;;2.17;;
25015;SDS011;13029;46.286;7.488;2023-02-11T10:31:58;4.95;;;2.40;;
25015;SDS011;13029;46.286;7.488;2023-02-11T10:34:25;4.68;;;2.58;;
25015;SDS011;13029;46.286;7.488;2023-02-11T10:36:50;3.72;;;2.35;;
25015;SDS011;13029;46.286;7.488;2023-02-11T10:39:20;8.27;;;2.50;;
25015;SDS011;13029;46.286;7.488;2023-02-11T10:44:27;6.40;;;3.93;;
25015;SDS011;13029;46.286;7.488;2023-02-11T10:46:55;5.47;;;3.45;;
25015;SDS011;13029;46.286;7.488;2023-02-11T10:55:33;5.10;;;2.33;;
25015;SDS011;13029;46.286;7.488;2023-02-11T10:57:42;7.93;;;2.67;;
25015;SDS011;13029;46.286;7.488;2023-02-11T11:03:06;4.15;;;1.70;;
25015;SDS011;13029;46.286;7.488;2023-02-11T11:08:45;1.65;;;1.35;;
25015;SDS011;13029;46.286;7.488;2023-02-11T11:11:22;7.28;;;2.00;;
25015;SDS011;13029;46.286;7.488;2023-02-11T11:18:50;5.10;;;2.05;;
25015;SDS011;13029;46.286;7.488;2023-02-11T11:23:53;1.75;;;1.45;;
25015;SDS011;13029;46.286;7.488;2023-02-11T11:26:20;3.08;;;0.93;;
25015;SDS011;13029;46.286;7.488;2023-02-11T11:28:54;3.85;;;1.25;;
25015;SDS011;13029;46.286;7.488;2023-02-11T11:31:23;4.38;;;1.52;;
25015;SDS011;13029;46.286;7.488;2023-02-11T11:33:52;3.08;;;1.40;;
25015;SDS011;13029;46.286;7.488;2023-02-11T11:36:20;1.50;;;1.40;;
25015;SDS011;13029;46.286;7.488;2023-02-11T11:38:53;3.53;;;1.60;;
25015;SDS011;13029;46.286;7.488;2023-02-11T11:41:30;3.05;;;1.80;;
25015;SDS011;13029;46.286;7.488;2023-02-11T11:46:48;6.47;;;2.60;;
25015;SDS011;13029;46.286;7.488;2023-02-11T11:49:34;8.20;;;2.43;;
25015;SDS011;13029;46.286;7.488;2023-02-11T11:54:42;8.10;;;2.75;;
25015;SDS011;13029;46.286;7.488;2023-02-11T11:57:13;8.30;;;3.45;;
25015;SDS011;13029;46.286;7.488;2023-02-11T11:59:40;5.13;;;2.90;;
25015;SDS011;13029;46.286;7.488;2023-02-11T12:05:08;6.95;;;2.70;;
25015;SDS011;13029;46.286;7.488;2023-02-11T12:10:30;6.28;;;3.08;;
25015;SDS011;13029;46.286;7.488;2023-02-11T12:13:22;6.63;;;3.00;;
25015;SDS011;13029;46.286;7.488;2023-02-11T12:16:14;7.10;;;3.03;;
25015;SDS011;13029;46.286;7.488;2023-02-11T12:24:43;1.50;;;1.30;;
25015;SDS011;13029;46.286;7.488;2023-02-11T12:27:17;1.88;;;1.25;;
25015;SDS011;13029;46.286;7.488;2023-02-11T12:30:00;2.00;;;1.15;;
25015;SDS011;13029;46.286;7.488;2023-02-11T12:40:53;3.05;;;2.53;;
25015;SDS011;13029;46.286;7.488;2023-02-11T12:43:23;3.85;;;2.67;;
25015;SDS011;13029;46.286;7.488;2023-02-11T12:45:58;8.13;;;2.78;;
25015;SDS011;13029;46.286;7.488;2023-02-11T12:57:17;3.70;;;2.40;;
25015;SDS011;13029;46.286;7.488;2023-02-11T13:05:17;3.53;;;1.90;;
25015;SDS011;13029;46.286;7.488;2023-02-11T13:12:38;2.50;;;1.60;;
25015;SDS011;13029;46.286;7.488;2023-02-11T13:15:26;4.97;;;2.15;;
25015;SDS011;13029;46.286;7.488;2023-02-11T13:17:54;2.67;;;2.00;;
25015;SDS011;13029;46.286;7.488;2023-02-11T13:20:27;5.72;;;2.10;;
25015;SDS011;13029;46.286;7.488;2023-02-11T13:23:18;2.83;;;2.38;;
25015;SDS011;13029;46.286;7.488;2023-02-11T13:25:47;4.85;;;2.00;;
25015;SDS011;13029;46.286;7.488;2023-02-11T13:31:04;2.95;;;2.13;;
25015;SDS011;13029;46.286;7.488;2023-02-11T13:33:32;7.85;;;2.25;;
25015;SDS011;13029;46.286;7.488;2023-02-11T13:38:26;6.20;;;2.50;;
25015;SDS011;13029;46.286;7.488;2023-02-11T13:41:06;2.97;;;2.20;;
25015;SDS011;13029;46.286;7.488;2023-02-11T13:43:40;5.50;;;2.60;;
25015;SDS011;13029;46.286;7.488;2023-02-11T13:46:07;5.38;;;2.15;;
25015;SDS011;13029;46.286;7.488;2023-02-11T13:48:37;3.65;;;2.50;;
25015;SDS011;13029;46.286;7.488;2023-02-11T13:51:04;5.07;;;3.13;;
25015;SDS011;13029;46.286;7.488;2023-02-11T13:53:43;5.72;;;2.65;;
25015;SDS011;13029;46.286;7.488;2023-02-11T13:57:14;6.65;;;2.90;;
25015;SDS011;13029;46.286;7.488;2023-02-11T14:08:06;6.18;;;2.85;;
25015;SDS011;13029;46.286;7.488;2023-02-11T14:13:23;4.80;;;2.77;;
25015;SDS011;13029;46.286;7.488;2023-02-11T14:21:12;8.27;;;2.75;;
25015;SDS011;13029;46.286;7.488;2023-02-11T14:23:39;3.67;;;2.60;;
25015;SDS011;13029;46.286;7.488;2023-02-11T14:26:15;5.60;;;2.90;;
25015;SDS011;13029;46.286;7.488;2023-02-11T14:28:47;4.53;;;2.50;;
25015;SDS011;13029;46.286;7.488;2023-02-11T14:33:55;4.18;;;2.65;;
25015;SDS011;13029;46.286;7.488;2023-02-11T14:36:44;4.55;;;2.83;;
25015;SDS011;13029;46.286;7.488;2023-02-11T14:39:23;4.05;;;3.08;;
25015;SDS011;13029;46.286;7.488;2023-02-11T14:42:14;4.03;;;2.38;;
25015;SDS011;13029;46.286;7.488;2023-02-11T14:44:42;5.72;;;2.63;;
25015;SDS011;13029;46.286;7.488;2023-02-11T14:47:10;6.05;;;2.13;;
25015;SDS011;13029;46.286;7.488;2023-02-11T14:49:39;2.72;;;1.63;;
25015;SDS011;13029;46.286;7.488;2023-02-11T14:52:25;6.72;;;2.35;;
25015;SDS011;13029;46.286;7.488;2023-02-11T14:54:55;3.45;;;2.15;;
25015;SDS011;13029;46.286;7.488;2023-02-11T14:57:27;4.45;;;2.65;;
25015;SDS011;13029;46.286;7.488;2023-02-11T14:59:55;4.47;;;2.60;;
25015;SDS011;13029;46.286;7.488;2023-02-11T15:02:32;5.55;;;2.53;;
25015;SDS011;13029;46.286;7.488;2023-02-11T15:07:47;4.88;;;2.95;;
25015;SDS011;13029;46.286;7.488;2023-02-11T15:10:24;5.82;;;2.72;;
25015;SDS011;13029;46.286;7.488;2023-02-11T15:12:52;3.95;;;3.13;;
25015;SDS011;13029;46.286;7.488;2023-02-11T15:15:17;6.82;;;2.42;;
25015;SDS011;13029;46.286;7.488;2023-02-11T15:17:43;3.83;;;2.35;;
25015;SDS011;13029;46.286;7.488;2023-02-11T15:20:15;4.70;;;2.15;;
25015;SDS011;13029;46.286;7.488;2023-02-11T15:22:44;4.38;;;2.42;;
25015;SDS011;13029;46.286;7.488;2023-02-11T15:25:11;2.90;;;2.20;;
25015;SDS011;13029;46.286;7.488;2023-02-11T15:27:41;4.00;;;2.70;;
25015;SDS011;13029;46.286;7.488;2023-02-11T15:32:47;6.68;;;3.33;;
25015;SDS011;13029;46.286;7.488;2023-02-11T15:35:14;6.53;;;2.70;;
25015;SDS011;13029;46.286;7.488;2023-02-11T15:37:39;8.50;;;2.67;;
25015;SDS011;13029;46.286;7.488;2023-02-11T15:40:14;6.60;;;2.80;;
25015;SDS011;13029;46.286;7.488;2023-02-11T15:45:34;4.60;;;2.75;;
25015;SDS011;13029;46.286;7.488;2023-02-11T15:48:13;7.70;;;2.88;;
25015;SDS011;13029;46.286;7.488;2023-02-11T15:50:40;5.75;;;2.85;;
25015;SDS011;13029;46.286;7.488;2023-02-11T15:53:18;5.47;;;2.95;;
25015;SDS011;13029;46.286;7.488;2023-02-11T15:55:45;5.20;;;2.50;;
25015;SDS011;13029;46.286;7.488;2023-02-11T15:58:10;5.85;;;3.50;;
25015;SDS011;13029;46.286;7.488;2023-02-11T16:00:36;5.90;;;3.22;;
25015;SDS011;13029;46.286;7.488;2023-02-11T16:03:23;6.30;;;3.45;;
25015;SDS011;13029;46.286;7.488;2023-02-11T16:05:52;6.13;;;2.90;;
25015;SDS011;13029;46.286;7.488;2023-02-11T16:10:52;6.80;;;3.28;;
25015;SDS011;13029;46.286;7.488;2023-02-11T16:13:27;5.07;;;3.00;;
25015;SDS011;13029;46.286;7.488;2023-02-11T16:15:58;4.13;;;2.70;;
25015;SDS011;13029;46.286;7.488;2023-02-11T16:18:33;5.50;;;3.25;;
25015;SDS011;13029;46.286;7.488;2023-02-11T16:21:00;5.47;;;3.72;;
25015;SDS011;13029;46.286;7.488;2023-02-11T16:23:36;7.72;;;4.57;;
25015;SDS011;13029;46.286;7.488;2023-02-11T16:26:08;6.20;;;4.13;;
25015;SDS011;13029;46.286;7.488;2023-02-11T16:28:36;8.95;;;4.47;;
25015;SDS011;13029;46.286;7.488;2023-02-11T16:31:02;6.45;;;4.35;;
25015;SDS011;13029;46.286;7.488;2023-02-11T16:33:28;7.45;;;4.60;;
25015;SDS011;13029;46.286;7.488;2023-02-11T16:35:53;6.28;;;4.10;;
25015;SDS011;13029;46.286;7.488;2023-02-11T16:38:19;7.57;;;3.63;;
25015;SDS011;13029;46.286;7.488;2023-02-11T16:40:44;6.85;;;3.65;;
25015;SDS011;13029;46.286;7.488;2023-02-11T16:43:13;5.68;;;3.80;;
25015;SDS011;13029;46.286;7.488;2023-02-11T16:45:38;5.10;;;3.45;;
25015;SDS011;13029;46.286;7.488;2023-02-11T16:48:07;5.75;;;2.70;;
25015;SDS011;13029;46.286;7.488;2023-02-11T16:50:33;9.00;;;3.10;;
25015;SDS011;13029;46.286;7.488;2023-02-11T16:52:59;11.10;;;3.08;;
25015;SDS011;13029;46.286;7.488;2023-02-11T16:55:26;6.85;;;3.65;;
25015;SDS011;13029;46.286;7.488;2023-02-11T16:57:51;10.13;;;3.33;;
25015;SDS011;13029;46.286;7.488;2023-02-11T17:00:17;4.93;;;3.20;;
25015;SDS011;13029;46.286;7.488;2023-02-11T17:02:43;8.05;;;3.05;;
25015;SDS011;13029;46.286;7.488;2023-02-11T17:05:14;8.73;;;3.53;;
25015;SDS011;13029;46.286;7.488;2023-02-11T17:07:42;5.57;;;3.03;;
25015;SDS011;13029;46.286;7.488;2023-02-11T17:10:14;5.10;;;2.42;;
25015;SDS011;13029;46.286;7.488;2023-02-11T17:12:42;9.82;;;3.95;;
25015;SDS011;13029;46.286;7.488;2023-02-11T17:15:07;5.35;;;3.28;;
25015;SDS011;13029;46.286;7.488;2023-02-11T17:17:33;9.93;;;3.03;;
25015;SDS011;13029;46.286;7.488;2023-02-11T17:19:58;7.38;;;2.83;;
25015;SDS011;13029;46.286;7.488;2023-02-11T17:22:24;7.32;;;2.63;;
25015;SDS011;13029;46.286;7.488;2023-02-11T17:24:49;5.47;;;3.00;;
25015;SDS011;13029;46.286;7.488;2023-02-11T17:27:14;7.38;;;2.80;;